Date,TemperatureHighF,TemperatureAvgF,TemperatureLowF,DewpointHighF,DewpointAvgF,DewpointLowF,HumidityHigh,HumidityAvg,HumidityLow,PressureMaxIn,PressureMinIn,WindSpeedMaxMPH,WindSpeedAvgMPH,GustSpeedMaxMPH,PrecipitationSumIn
2013-1-1,22.9,17.5,10.5,16.1,10.3,4.4,84,73,57,29.35,29.20,8,0,8,0.00
2013-1-2,25.6,16.4,7.3,15.4,9.1,2.8,83,73,60,29.32,29.23,8,0,8,0.00
2013-1-3,30.7,23.1,15.8,24.7,17.1,10.2,84,78,69,29.43,29.24,8,1,12,0.00
2013-1-4,32.0,22.1,11.1,23.2,15.4,6.2,81,75,67,29.42,29.34,13,2,14,0.00
2013-1-5,35.3,29.3,22.0,31.7,24.4,16.8,92,82,74,29.36,29.11,7,1,10,0.00
2013-1-6,35.3,26.5,17.1,30.6,20.5,13.1,92,78,71,29.44,29.09,12,3,14,0.00
2013-1-7,37.4,27.7,16.5,28.3,21.5,12.8,86,78,68,29.45,29.24,10,1,16,0.00
2013-1-8,45.0,34.8,28.2,34.0,27.5,22.5,80,75,63,29.28,29.18,9,1,9,0.00
2013-1-9,49.3,38.8,28.6,34.8,29.8,22.9,84,71,44,29.60,29.18,10,1,11,0.00
2013-1-10,48.2,36.1,28.1,47.1,28.3,21.9,96,74,55,29.58,28.92,11,1,15,0.01
2013-1-11,56.0,50.9,46.5,51.7,47.3,44.0,93,87,77,28.95,28.83,11,2,20,0.01
2013-1-12,51.2,42.9,28.1,46.9,37.5,24.9,92,81,65,29.08,28.87,10,1,10,0.05
2013-1-13,28.1,20.6,13.6,25.0,16.0,7.7,88,82,76,29.39,28.99,7,2,10,0.00
2013-1-14,25.3,17.3,12.5,15.9,11.3,7.5,92,77,62,29.54,29.38,5,0,8,0.00
2013-1-15,30.1,21.3,13.0,21.6,15.3,8.3,85,78,65,29.52,29.22,4,0,7,0.00
2013-1-16,35.6,28.1,17.7,27.3,20.4,13.1,92,73,60,29.22,29.02,13,2,18,0.02
2013-1-17,34.4,29.9,22.6,29.1,21.0,16.4,84,70,52,29.53,29.18,9,1,13,0.00
2013-1-18,42.7,32.2,21.5,30.5,23.6,15.7,80,71,58,29.54,29.13,15,2,15,0.00
2013-1-19,51.8,40.4,33.9,38.0,31.1,22.7,79,70,57,29.15,28.93,15,3,17,0.00
2013-1-20,34.4,20.0,15.3,23.2,8.8,5.4,76,62,46,29.42,29.15,16,2,16,0.00
2013-1-21,16.6,9.9,4.5,8.9,-0.6,-5.5,79,63,44,29.42,29.29,20,4,20,0.00
2013-1-22,14.3,8.8,1.9,-0.1,-3.5,-5.9,73,58,44,29.50,29.41,7,2,9,0.00
2013-1-23,32.0,18.0,12.3,16.0,5.3,-0.6,65,57,47,29.44,29.19,9,1,15,0.00
2013-1-24,25.0,16.6,6.3,8.4,3.4,-3.7,68,56,47,29.69,29.41,8,1,10,0.00
2013-1-25,34.6,25.8,18.7,19.3,14.6,4.9,81,63,48,29.41,29.11,13,2,15,0.01
2013-1-26,34.7,23.6,13.2,16.1,10.9,6.4,74,59,39,29.48,29.29,7,0,8,0.01
2013-1-27,42.1,30.9,24.0,39.7,25.3,15.7,91,80,67,29.44,29.02,16,3,19,0.07
2013-1-28,56.9,50.4,41.7,54.9,48.3,39.5,93,92,91,29.06,28.93,9,1,11,0.00
2013-1-29,62.4,57.6,51.6,58.0,54.8,49.4,93,91,85,28.94,28.52,13,2,17,0.34
2013-1-30,51.6,35.9,19.6,49.4,32.1,13.4,93,86,74,28.87,28.40,16,4,20,0.02
2013-1-31,21.0,15.0,4.7,18.9,7.4,-2.9,92,72,61,29.34,28.86,16,5,19,0.00